createdAt,value
2022-11-18T00:01:21.226Z,3.15
2022-11-18T00:03:50.200Z,3.47
2022-11-18T00:06:20.317Z,3.58
2022-11-18T00:08:50.183Z,3.30
2022-11-18T00:11:39.563Z,3.40
2022-11-18T00:14:20.487Z,3.40
2022-11-18T00:19:18.335Z,3.35
2022-11-18T00:21:46.728Z,3.42
2022-11-18T00:24:16.421Z,3.60
2022-11-18T00:26:44.533Z,3.72
2022-11-18T00:29:12.863Z,3.40
2022-11-18T00:31:41.039Z,3.10
2022-11-18T00:34:12.243Z,3.60
2022-11-18T00:36:40.376Z,3.08
2022-11-18T00:39:08.503Z,3.70
2022-11-18T00:41:55.154Z,3.25
2022-11-18T00:44:23.263Z,3.70
2022-11-18T00:46:51.356Z,3.53
2022-11-18T00:49:19.511Z,3.53
2022-11-18T00:51:47.925Z,2.88
2022-11-18T00:54:16.051Z,3.28
2022-11-18T00:56:45.592Z,3.58
2022-11-18T00:59:13.753Z,3.20
2022-11-18T01:01:42.082Z,2.80
2022-11-18T01:04:10.377Z,3.53
2022-11-18T01:06:38.528Z,3.38
2022-11-18T01:09:06.781Z,3.20
2022-11-18T01:11:52.447Z,3.10
2022-11-18T01:14:21.921Z,3.40
2022-11-18T01:16:51.431Z,3.17
2022-11-18T01:19:20.894Z,3.50
2022-11-18T01:21:49.062Z,3.63
2022-11-18T01:24:17.641Z,3.65
2022-11-18T01:26:45.754Z,3.95
2022-11-18T01:29:13.966Z,3.53
2022-11-18T01:32:08.818Z,3.40
2022-11-18T01:34:32.042Z,2.88
2022-11-18T01:37:00.215Z,3.33
2022-11-18T01:39:28.280Z,3.65
2022-11-18T01:41:56.420Z,3.28
2022-11-18T01:44:59.132Z,3.42
2022-11-18T01:47:32.682Z,3.33
2022-11-18T01:50:01.843Z,3.55
2022-11-18T01:52:30.871Z,3.85
2022-11-18T01:55:03.166Z,3.40
2022-11-18T01:57:32.502Z,3.63
2022-11-18T02:00:04.503Z,3.55
2022-11-18T02:02:36.771Z,3.45
2022-11-18T02:05:06.527Z,3.38
2022-11-18T02:07:37.083Z,3.53
2022-11-18T02:10:07.580Z,3.58
2022-11-18T02:12:36.771Z,3.45
2022-11-18T02:15:05.963Z,3.20
2022-11-18T02:17:44.751Z,2.97
2022-11-18T02:20:32.059Z,3.60
2022-11-18T02:23:57.240Z,3.47
2022-11-18T02:26:52.832Z,3.15
2022-11-18T02:29:26.881Z,3.40
2022-11-18T02:32:01.322Z,3.10
2022-11-18T02:34:42.720Z,3.97
2022-11-18T02:37:18.325Z,3.35
2022-11-18T02:39:54.953Z,3.67
2022-11-18T02:42:24.138Z,3.83
2022-11-18T02:44:57.770Z,3.53
2022-11-18T02:47:28.465Z,3.33
2022-11-18T02:50:00.272Z,3.50
2022-11-18T02:52:29.221Z,3.72
2022-11-18T02:54:59.159Z,4.00
2022-11-18T02:57:30.297Z,3.65
2022-11-18T02:59:59.826Z,3.17
2022-11-18T03:02:28.197Z,3.72
2022-11-18T03:04:59.767Z,3.50
2022-11-18T03:07:31.551Z,3.95
2022-11-18T03:10:01.213Z,3.63
2022-11-18T03:12:37.067Z,3.70
2022-11-18T03:15:14.784Z,3.00
2022-11-18T03:17:54.985Z,3.60
2022-11-18T03:20:27.141Z,3.50
2022-11-18T03:23:02.119Z,3.40
2022-11-18T03:25:37.879Z,3.60
2022-11-18T03:28:11.374Z,4.07
2022-11-18T03:30:46.522Z,3.60
2022-11-18T03:33:20.572Z,3.17
2022-11-18T03:35:52.829Z,3.50
2022-11-18T03:38:26.422Z,3.40
2022-11-18T03:40:58.986Z,3.45
2022-11-18T03:43:32.297Z,3.40
2022-11-18T03:46:08.272Z,3.72
2022-11-18T03:48:42.349Z,3.63
2022-11-18T03:51:13.224Z,3.45
2022-11-18T03:53:44.238Z,3.17
2022-11-18T03:58:55.048Z,3.40
2022-11-18T04:01:31.333Z,3.67
2022-11-18T04:03:59.486Z,3.35
2022-11-18T04:06:35.545Z,3.38
2022-11-18T04:09:10.146Z,3.83
2022-11-18T04:12:02.336Z,3.50
2022-11-18T04:14:31.798Z,3.58
2022-11-18T04:17:01.490Z,3.47
2022-11-18T04:19:29.655Z,3.47
2022-11-18T04:21:57.760Z,3.15
2022-11-18T04:24:25.889Z,3.70
2022-11-18T04:26:53.970Z,3.42
2022-11-18T04:29:22.138Z,3.63
2022-11-18T04:31:50.311Z,3.05
2022-11-18T04:34:19.946Z,3.60
2022-11-18T04:36:48.019Z,3.15
2022-11-18T04:39:18.304Z,3.40
2022-11-18T04:41:59.195Z,3.60
2022-11-18T04:44:29.250Z,3.30
2022-11-18T04:46:59.319Z,3.45
2022-11-18T04:49:29.652Z,2.95
2022-11-18T04:51:58.118Z,2.80
2022-11-18T04:54:27.674Z,3.40
2022-11-18T04:56:56.616Z,3.67
2022-11-18T04:59:27.595Z,3.67
2022-11-18T05:04:27.463Z,3.55
2022-11-18T05:06:57.088Z,3.20
2022-11-18T05:09:31.368Z,3.10
2022-11-18T05:12:17.805Z,3.40
2022-11-18T05:14:49.974Z,3.28
2022-11-18T05:17:19.016Z,3.22
2022-11-18T05:19:47.129Z,3.00
2022-11-18T05:22:17.331Z,3.95
2022-11-18T05:24:45.513Z,3.37
2022-11-18T05:27:14.378Z,3.40
2022-11-18T05:29:42.556Z,3.17
2022-11-18T05:32:10.730Z,3.10
2022-11-18T05:34:38.878Z,3.42
2022-11-18T05:37:07.078Z,3.47
2022-11-18T05:39:36.667Z,3.90
2022-11-18T05:42:22.951Z,3.05
2022-11-18T05:44:56.367Z,3.13
2022-11-18T05:47:26.047Z,3.30
2022-11-18T05:49:54.164Z,2.88
2022-11-18T05:52:22.315Z,3.15
2022-11-18T05:54:52.645Z,3.22
2022-11-18T05:57:20.780Z,3.23
2022-11-18T05:59:48.927Z,3.60
2022-11-18T06:02:21.052Z,3.50
2022-11-18T06:04:51.349Z,3.30
2022-11-18T06:07:23.971Z,3.37
2022-11-18T06:10:02.080Z,3.10
2022-11-18T06:12:37.208Z,3.28
2022-11-18T06:15:10.168Z,3.33
2022-11-18T06:17:45.757Z,3.47
2022-11-18T06:20:14.076Z,3.47
2022-11-18T06:22:46.488Z,3.40
2022-11-18T06:25:16.808Z,3.58
2022-11-18T06:27:45.677Z,3.55
2022-11-18T06:30:15.047Z,3.70
2022-11-18T06:32:46.150Z,3.28
2022-11-18T06:35:14.327Z,3.63
2022-11-18T06:37:42.474Z,3.60
2022-11-18T06:40:12.073Z,3.13
2022-11-18T06:42:55.594Z,3.70
2022-11-18T06:45:23.864Z,3.40
2022-11-18T06:47:52.045Z,3.25
2022-11-18T06:50:20.336Z,3.90
2022-11-18T06:52:48.425Z,3.63
2022-11-18T06:55:16.710Z,3.67
2022-11-18T06:57:46.296Z,3.38
2022-11-18T07:00:15.930Z,4.50
2022-11-18T07:02:44.049Z,3.55
2022-11-18T07:05:12.167Z,3.58
2022-11-18T07:07:42.220Z,3.30
2022-11-18T07:10:11.152Z,3.65
2022-11-18T07:12:39.232Z,3.35
2022-11-18T07:15:09.903Z,3.05
2022-11-18T07:17:38.029Z,3.47
2022-11-18T07:20:06.861Z,3.50
2022-11-18T07:22:35.079Z,3.45
2022-11-18T07:25:03.145Z,3.78
2022-11-18T07:27:31.217Z,3.65
2022-11-18T07:29:59.350Z,3.13
2022-11-18T07:32:28.828Z,3.45
2022-11-18T07:34:56.935Z,3.40
2022-11-18T07:37:25.063Z,3.78
2022-11-18T07:39:53.144Z,3.50
2022-11-18T07:42:21.232Z,3.75
2022-11-18T07:44:50.086Z,3.80
2022-11-18T07:47:18.213Z,3.55
2022-11-18T07:49:47.750Z,2.95
2022-11-18T07:52:15.889Z,3.58
2022-11-18T07:54:43.964Z,3.47
2022-11-18T07:57:12.125Z,3.15
2022-11-18T07:59:40.274Z,3.42
2022-11-18T08:02:08.439Z,3.40
2022-11-18T08:04:38.684Z,5.57
2022-11-18T08:07:10.769Z,4.00
2022-11-18T08:09:38.937Z,4.22
2022-11-18T08:12:07.725Z,4.13
2022-11-18T08:14:35.884Z,4.25
2022-11-18T08:17:04.044Z,4.32
2022-11-18T08:19:32.155Z,4.15
2022-11-18T08:22:00.276Z,3.85
2022-11-18T08:24:29.836Z,3.92
2022-11-18T08:26:57.931Z,3.70
2022-11-18T08:29:26.295Z,3.95
2022-11-18T08:31:54.751Z,3.97
2022-11-18T08:34:22.972Z,3.75
2022-11-18T08:36:51.144Z,3.60
2022-11-18T08:39:19.495Z,4.00
2022-11-18T08:41:49.266Z,4.20
2022-11-18T08:44:18.331Z,4.13
2022-11-18T08:46:46.982Z,3.92
2022-11-18T08:49:15.737Z,3.60
2022-11-18T08:51:44.241Z,3.22
2022-11-18T08:54:12.325Z,4.07
2022-11-18T08:56:40.466Z,3.85
2022-11-18T08:59:10.318Z,3.72
2022-11-18T09:01:38.764Z,3.88
2022-11-18T09:04:06.983Z,3.78
2022-11-18T09:06:35.149Z,3.83
2022-11-18T09:09:06.359Z,3.72
2022-11-18T09:11:35.767Z,3.60
2022-11-18T09:16:53.721Z,3.65
2022-11-18T09:19:46.193Z,3.63
2022-11-18T09:22:10.381Z,3.55
2022-11-18T09:24:38.542Z,4.65
2022-11-18T09:27:12.256Z,4.13
2022-11-18T09:29:43.528Z,3.67
2022-11-18T09:32:13.137Z,4.20
2022-11-18T09:34:41.231Z,4.47
2022-11-18T09:37:09.366Z,4.32
2022-11-18T09:39:38.120Z,3.85
2022-11-18T09:42:27.485Z,4.18
2022-11-18T09:45:14.640Z,5.50
2022-11-18T09:47:45.063Z,4.90
2022-11-18T09:50:47.442Z,5.32
2022-11-18T09:53:14.349Z,4.90
2022-11-18T09:55:43.514Z,4.85
2022-11-18T09:58:19.303Z,4.97
2022-11-18T10:00:47.417Z,5.20
2022-11-18T10:03:27.067Z,4.45
2022-11-18T10:05:59.195Z,4.68
2022-11-18T10:08:32.253Z,5.20
2022-11-18T10:11:04.880Z,4.60
2022-11-18T10:13:43.530Z,5.07
2022-11-18T10:16:26.749Z,4.85
2022-11-18T10:19:05.865Z,4.85
2022-11-18T10:21:52.490Z,4.68
2022-11-18T10:24:22.669Z,4.57
2022-11-18T10:26:56.576Z,4.70
2022-11-18T10:29:25.223Z,4.30
2022-11-18T10:32:01.111Z,4.40
2022-11-18T10:34:33.654Z,4.05
2022-11-18T10:37:03.839Z,4.05
2022-11-18T10:39:32.488Z,4.23
2022-11-18T10:42:04.116Z,4.32
2022-11-18T10:44:37.279Z,3.95
2022-11-18T10:47:27.650Z,3.97
2022-11-18T10:49:58.798Z,4.17
2022-11-18T10:52:27.911Z,4.30
2022-11-18T10:55:27.340Z,4.50
2022-11-18T10:57:59.367Z,4.47
2022-11-18T11:00:51.241Z,4.35
2022-11-18T11:03:34.115Z,4.00
2022-11-18T11:06:22.367Z,4.10
2022-11-18T11:08:52.200Z,4.28
2022-11-18T11:11:26.596Z,3.95
2022-11-18T11:14:01.334Z,3.92
2022-11-18T11:16:31.581Z,4.13
2022-11-18T11:19:04.141Z,4.30
2022-11-18T11:21:33.651Z,4.13
2022-11-18T11:24:01.801Z,3.85
2022-11-18T11:29:36.234Z,4.65
2022-11-18T11:32:14.820Z,4.05
2022-11-18T11:34:49.893Z,4.68
2022-11-18T11:37:30.247Z,3.95
2022-11-18T11:40:19.064Z,4.00
2022-11-18T11:42:56.547Z,4.13
2022-11-18T11:45:30.242Z,4.38
2022-11-18T11:48:22.785Z,3.80
2022-11-18T11:51:03.336Z,4.10
2022-11-18T11:54:01.165Z,4.07
2022-11-18T11:56:35.624Z,4.38
2022-11-18T11:59:26.528Z,4.07
2022-11-18T12:02:00.770Z,4.72
2022-11-18T12:04:38.646Z,3.67
2022-11-18T12:07:09.347Z,4.05
2022-11-18T12:10:04.683Z,3.88
2022-11-18T12:12:39.406Z,4.18
2022-11-18T12:15:25.663Z,3.85
2022-11-18T12:18:01.209Z,3.53
2022-11-18T12:20:45.198Z,4.03
2022-11-18T12:23:15.830Z,3.65
2022-11-18T12:26:07.026Z,4.13
2022-11-18T12:31:36.975Z,3.90
2022-11-18T12:34:28.257Z,4.20
2022-11-18T12:36:57.134Z,4.00
2022-11-18T12:39:59.498Z,3.90
2022-11-18T12:43:02.093Z,4.30
2022-11-18T12:45:57.985Z,3.92
2022-11-18T12:48:32.480Z,4.75
2022-11-18T12:51:02.263Z,3.80
2022-11-18T12:53:38.573Z,3.80
2022-11-18T12:56:23.909Z,3.90
2022-11-18T12:58:55.660Z,3.90
2022-11-18T13:01:27.570Z,4.22
2022-11-18T13:04:08.857Z,4.10
2022-11-18T13:06:39.618Z,4.20
2022-11-18T13:09:17.681Z,3.42
2022-11-18T13:11:53.022Z,4.00
2022-11-18T13:14:45.847Z,3.75
2022-11-18T13:17:46.713Z,3.67
2022-11-18T13:20:27.381Z,4.57
2022-11-18T13:23:15.232Z,3.60
2022-11-18T13:25:45.232Z,3.65
2022-11-18T13:28:26.773Z,3.53
2022-11-18T13:31:02.833Z,3.85
2022-11-18T13:33:34.666Z,4.00
2022-11-18T13:36:03.031Z,3.47
2022-11-18T13:38:31.232Z,4.15
2022-11-18T13:41:13.099Z,3.53
2022-11-18T13:43:41.322Z,4.22
2022-11-18T13:46:17.705Z,4.25
2022-11-18T13:48:50.518Z,3.55
2022-11-18T13:51:19.448Z,3.85
2022-11-18T13:53:48.680Z,4.43
2022-11-18T13:56:21.358Z,4.28
2022-11-18T13:59:16.381Z,4.28
2022-11-18T14:01:46.635Z,3.58
2022-11-18T14:04:20.582Z,3.97
2022-11-18T14:06:49.193Z,3.88
2022-11-18T14:09:22.239Z,3.50
2022-11-18T14:12:01.241Z,4.10
2022-11-18T14:14:31.926Z,4.60
2022-11-18T14:17:18.201Z,4.15
2022-11-18T14:19:47.693Z,3.72
2022-11-18T14:22:19.606Z,4.03
2022-11-18T14:24:56.668Z,4.13
2022-11-18T14:27:47.553Z,4.65
2022-11-18T14:30:36.425Z,3.97
2022-11-18T14:33:20.524Z,3.80
2022-11-18T14:35:54.955Z,4.80
2022-11-18T14:38:52.451Z,3.70
2022-11-18T14:41:15.810Z,3.75
2022-11-18T14:43:46.169Z,3.58
2022-11-18T14:46:18.184Z,4.35
2022-11-18T14:48:47.956Z,3.50
2022-11-18T14:51:17.274Z,3.70
2022-11-18T14:53:45.872Z,3.72
2022-11-18T14:56:17.120Z,4.28
2022-11-18T14:58:45.316Z,3.90
2022-11-18T15:01:14.208Z,3.80
2022-11-18T15:03:42.433Z,4.20
2022-11-18T15:06:19.571Z,3.85
2022-11-18T15:08:49.599Z,3.78
2022-11-18T15:11:19.144Z,3.87
2022-11-18T15:13:47.749Z,3.85
2022-11-18T15:16:17.785Z,3.63
2022-11-18T15:18:47.759Z,3.88
2022-11-18T15:21:17.484Z,3.85
2022-11-18T15:23:45.757Z,3.25
2022-11-18T15:26:20.513Z,3.35
2022-11-18T15:28:49.257Z,3.85
2022-11-18T15:31:17.968Z,3.53
2022-11-18T15:33:47.087Z,3.72
2022-11-18T15:36:18.480Z,3.20
2022-11-18T15:38:46.894Z,4.05
2022-11-18T15:41:18.594Z,3.45
2022-11-18T15:43:47.048Z,4.13
2022-11-18T15:46:15.192Z,4.00
2022-11-18T15:48:43.773Z,3.58
2022-11-18T15:51:12.592Z,3.63
2022-11-18T15:53:42.211Z,3.53
2022-11-18T15:56:25.869Z,3.38
2022-11-18T15:58:56.743Z,3.38
2022-11-18T16:01:25.958Z,3.58
2022-11-18T16:03:54.483Z,3.78
2022-11-18T16:06:22.952Z,3.10
2022-11-18T16:08:58.843Z,3.63
2022-11-18T16:11:45.681Z,3.35
2022-11-18T16:14:16.343Z,3.40
2022-11-18T16:16:46.316Z,4.03
2022-11-18T16:19:16.837Z,3.80
2022-11-18T16:21:47.425Z,3.30
2022-11-18T16:24:19.289Z,3.40
2022-11-18T16:26:48.065Z,3.38
2022-11-18T16:29:17.606Z,3.40
2022-11-18T16:31:50.897Z,3.40
2022-11-18T16:34:21.231Z,3.63
2022-11-18T16:36:50.600Z,3.50
2022-11-18T16:39:23.593Z,3.33
2022-11-18T16:41:52.033Z,3.40
2022-11-18T16:44:20.530Z,3.10
2022-11-18T16:46:51.220Z,3.60
2022-11-18T16:49:21.180Z,3.40
2022-11-18T16:51:51.783Z,3.20
2022-11-18T16:54:23.796Z,3.80
2022-11-18T16:56:53.300Z,3.60
2022-11-18T16:59:23.664Z,3.47
2022-11-18T17:01:54.002Z,3.45
2022-11-18T17:04:24.461Z,3.92
2022-11-18T17:06:53.370Z,3.70
2022-11-18T17:09:24.376Z,5.20
2022-11-18T17:11:53.582Z,5.22
2022-11-18T17:14:22.633Z,4.82
2022-11-18T17:16:51.523Z,5.25
2022-11-18T17:19:21.922Z,5.28
2022-11-18T17:21:50.622Z,5.20
2022-11-18T17:24:20.914Z,5.05
2022-11-18T17:26:51.027Z,5.28
2022-11-18T17:29:19.784Z,4.88
2022-11-18T17:31:48.132Z,5.13
2022-11-18T17:34:17.244Z,5.10
2022-11-18T17:36:45.948Z,5.38
2022-11-18T17:39:14.409Z,5.03
2022-11-18T17:42:00.350Z,4.93
2022-11-18T17:44:30.113Z,5.43
2022-11-18T17:46:58.238Z,5.05
2022-11-18T17:49:26.381Z,4.82
2022-11-18T17:51:54.613Z,4.72
2022-11-18T17:54:23.164Z,5.25
2022-11-18T17:56:52.957Z,4.78
2022-11-18T17:59:21.589Z,5.30
2022-11-18T18:01:57.284Z,4.93
2022-11-18T18:04:26.912Z,4.57
2022-11-18T18:06:56.326Z,4.55
2022-11-18T18:09:30.136Z,4.65
2022-11-18T18:11:59.059Z,5.10
2022-11-18T18:14:26.189Z,5.10
2022-11-18T18:16:55.669Z,4.78
2022-11-18T18:19:24.805Z,4.60
2022-11-18T18:21:54.133Z,4.53
2022-11-18T18:24:22.798Z,4.57
2022-11-18T18:26:51.298Z,4.97
2022-11-18T18:29:22.916Z,4.63
2022-11-18T18:31:51.091Z,4.78
2022-11-18T18:34:21.009Z,4.88
2022-11-18T18:36:49.509Z,5.23
2022-11-18T18:39:17.663Z,4.90
2022-11-18T18:41:45.786Z,5.30
2022-11-18T18:44:18.348Z,5.20
2022-11-18T18:46:46.013Z,4.60
2022-11-18T18:49:15.824Z,5.00
2022-11-18T18:51:48.942Z,4.85
2022-11-18T18:54:19.606Z,4.80
2022-11-18T18:59:15.924Z,4.57
2022-11-18T19:01:44.097Z,4.40
2022-11-18T19:04:14.247Z,4.55
2022-11-18T19:07:01.153Z,4.40
2022-11-18T19:09:29.342Z,4.50
2022-11-18T19:12:14.923Z,4.03
2022-11-18T19:14:43.254Z,4.30
2022-11-18T19:17:12.802Z,4.07
2022-11-18T19:19:59.652Z,4.78
2022-11-18T19:22:31.331Z,4.43
2022-11-18T19:25:00.445Z,4.43
2022-11-18T19:27:29.415Z,4.57
2022-11-18T19:29:57.762Z,4.72
2022-11-18T19:32:26.112Z,4.10
2022-11-18T19:34:54.482Z,3.90
2022-11-18T19:37:22.708Z,4.18
2022-11-18T19:39:52.276Z,4.20
2022-11-18T19:42:20.644Z,4.53
2022-11-18T19:44:48.919Z,3.83
2022-11-18T19:47:17.019Z,4.18
2022-11-18T19:49:45.120Z,4.28
2022-11-18T19:52:13.334Z,4.30
2022-11-18T19:54:41.554Z,4.00
2022-11-18T19:57:11.073Z,4.50
2022-11-18T19:59:39.641Z,4.50
2022-11-18T20:02:08.375Z,4.18
2022-11-18T20:04:36.458Z,4.28
2022-11-18T20:07:04.648Z,4.28
2022-11-18T20:09:32.819Z,4.57
2022-11-18T20:12:01.076Z,4.45
2022-11-18T20:14:30.638Z,4.05
2022-11-18T20:16:58.761Z,4.30
2022-11-18T20:19:26.837Z,4.43
2022-11-18T20:21:54.948Z,4.05
2022-11-18T20:24:23.017Z,4.35
2022-11-18T20:26:51.149Z,4.70
2022-11-18T20:29:19.390Z,4.05
2022-11-18T20:31:48.989Z,4.22
2022-11-18T20:34:17.291Z,3.95
2022-11-18T20:36:46.511Z,4.07
2022-11-18T20:39:16.312Z,3.58
2022-11-18T20:42:05.000Z,4.20
2022-11-18T20:44:33.515Z,3.97
2022-11-18T20:47:03.329Z,3.53
2022-11-18T20:49:31.449Z,3.95
2022-11-18T20:51:59.623Z,3.53
2022-11-18T20:54:27.753Z,3.67
2022-11-18T20:56:55.894Z,3.80
2022-11-18T20:59:24.797Z,4.00
2022-11-18T21:01:53.126Z,4.30
2022-11-18T21:04:22.788Z,3.72
2022-11-18T21:06:54.553Z,4.03
2022-11-18T21:09:24.878Z,4.00
2022-11-18T21:11:53.029Z,4.30
2022-11-18T21:14:24.702Z,4.00
2022-11-18T21:16:55.245Z,4.32
2022-11-18T21:19:26.367Z,4.00
2022-11-18T21:21:55.083Z,4.00
2022-11-18T21:24:25.284Z,4.35
2022-11-18T21:26:55.412Z,3.87
2022-11-18T21:29:24.560Z,3.75
2022-11-18T21:31:53.666Z,4.00
2022-11-18T21:34:22.360Z,3.50
2022-11-18T21:36:54.857Z,3.90
2022-11-18T21:39:23.790Z,3.97
2022-11-18T21:41:56.308Z,3.58
2022-11-18T21:44:25.760Z,3.83
2022-11-18T21:46:54.082Z,3.60
2022-11-18T21:49:22.736Z,3.80
2022-11-18T21:51:52.512Z,4.13
2022-11-18T21:54:20.659Z,3.60
2022-11-18T21:56:49.320Z,3.70
2022-11-18T21:59:17.612Z,3.63
2022-11-18T22:01:46.020Z,3.30
2022-11-18T22:04:34.166Z,3.70
2022-11-18T22:07:03.796Z,3.70
2022-11-18T22:09:36.384Z,3.42
2022-11-18T22:12:06.720Z,3.40
2022-11-18T22:17:25.369Z,3.70
2022-11-18T22:19:53.445Z,3.47
2022-11-18T22:22:22.986Z,3.38
2022-11-18T22:24:51.148Z,3.20
2022-11-18T22:27:19.366Z,3.42
2022-11-18T22:29:47.476Z,3.75
2022-11-18T22:32:16.819Z,3.58
2022-11-18T22:34:47.996Z,3.25
2022-11-18T22:37:19.838Z,3.50
2022-11-18T22:39:49.345Z,3.40
2022-11-18T22:42:43.007Z,3.45
2022-11-18T22:45:11.327Z,3.92
2022-11-18T22:47:39.431Z,3.63
2022-11-18T22:50:08.123Z,3.22
2022-11-18T22:52:36.696Z,3.22
2022-11-18T22:55:06.736Z,3.45
2022-11-18T22:57:35.355Z,3.50
2022-11-18T23:00:04.664Z,3.20
2022-11-18T23:02:32.801Z,3.72
2022-11-18T23:05:00.913Z,3.00
2022-11-18T23:07:29.266Z,3.22
2022-11-18T23:09:57.401Z,3.35
2022-11-18T23:12:47.706Z,3.40
2022-11-18T23:15:16.149Z,3.10
2022-11-18T23:17:44.274Z,3.25
2022-11-18T23:20:12.952Z,2.80
2022-11-18T23:22:41.079Z,3.15
2022-11-18T23:25:09.710Z,3.20
2022-11-18T23:27:39.188Z,2.97
2022-11-18T23:30:08.546Z,3.50
2022-11-18T23:32:36.850Z,2.92
2022-11-18T23:35:05.736Z,3.35
2022-11-18T23:37:33.870Z,2.58
2022-11-18T23:40:01.978Z,3.35
2022-11-18T23:42:30.111Z,3.40
2022-11-18T23:45:04.858Z,2.88
2022-11-18T23:47:33.451Z,3.30
2022-11-18T23:50:01.594Z,3.03
2022-11-18T23:52:29.690Z,3.20
2022-11-18T23:54:59.411Z,3.03
2022-11-18T23:57:27.550Z,3.15
2022-11-18T23:59:55.685Z,3.10
